sensor_id;sensor_type;location;lat;lon;timestamp;P1;durP1;ratioP1;P2;durP2;ratioP2
49578;SDS011;35483;50.828;3.228;2022-10-26T00:00:02;5.72;;;3.05;;
49578;SDS011;35483;50.828;3.228;2022-10-26T00:02:29;7.13;;;3.28;;
49578;SDS011;35483;50.828;3.228;2022-10-26T00:04:54;6.28;;;2.67;;
49578;SDS011;35483;50.828;3.228;2022-10-26T00:07:20;4.70;;;2.38;;
49578;SDS011;35483;50.828;3.228;2022-10-26T00:09:46;4.07;;;2.40;;
49578;SDS011;35483;50.828;3.228;2022-10-26T00:12:12;4.88;;;2.65;;
49578;SDS011;35483;50.828;3.228;2022-10-26T00:14:38;9.48;;;2.88;;
49578;SDS011;35483;50.828;3.228;2022-10-26T00:17:03;5.63;;;2.60;;
49578;SDS011;35483;50.828;3.228;2022-10-26T00:19:31;7.28;;;3.20;;
49578;SDS011;35483;50.828;3.228;2022-10-26T00:21:58;5.22;;;2.60;;
49578;SDS011;35483;50.828;3.228;2022-10-26T00:24:23;3.42;;;2.47;;
49578;SDS011;35483;50.828;3.228;2022-10-26T00:26:49;6.05;;;2.50;;
49578;SDS011;35483;50.828;3.228;2022-10-26T00:29:15;3.55;;;2.10;;
49578;SDS011;35483;50.828;3.228;2022-10-26T00:31:42;4.50;;;2.10;;
49578;SDS011;35483;50.828;3.228;2022-10-26T00:34:09;7.03;;;2.30;;
49578;SDS011;35483;50.828;3.228;2022-10-26T00:36:36;3.50;;;2.55;;
49578;SDS011;35483;50.828;3.228;2022-10-26T00:39:02;4.45;;;2.17;;
49578;SDS011;35483;50.828;3.228;2022-10-26T00:41:29;6.93;;;2.30;;
49578;SDS011;35483;50.828;3.228;2022-10-26T00:43:57;5.35;;;2.17;;
49578;SDS011;35483;50.828;3.228;2022-10-26T00:46:25;5.97;;;2.10;;
49578;SDS011;35483;50.828;3.228;2022-10-26T00:48:55;5.03;;;2.50;;
49578;SDS011;35483;50.828;3.228;2022-10-26T00:51:26;6.97;;;2.78;;
49578;SDS011;35483;50.828;3.228;2022-10-26T00:53:58;5.30;;;2.00;;
49578;SDS011;35483;50.828;3.228;2022-10-26T00:56:26;5.05;;;2.10;;
49578;SDS011;35483;50.828;3.228;2022-10-26T00:58:52;6.07;;;2.60;;
49578;SDS011;35483;50.828;3.228;2022-10-26T01:01:19;5.00;;;2.38;;
49578;SDS011;35483;50.828;3.228;2022-10-26T01:03:45;2.60;;;2.10;;
49578;SDS011;35483;50.828;3.228;2022-10-26T01:06:11;3.35;;;2.20;;
49578;SDS011;35483;50.828;3.228;2022-10-26T01:08:39;3.55;;;2.00;;
49578;SDS011;35483;50.828;3.228;2022-10-26T01:11:06;2.88;;;2.25;;
49578;SDS011;35483;50.828;3.228;2022-10-26T01:13:32;7.28;;;2.40;;
49578;SDS011;35483;50.828;3.228;2022-10-26T01:26:34;5.57;;;2.13;;
49578;SDS011;35483;50.828;3.228;2022-10-26T01:29:25;5.75;;;2.17;;
49578;SDS011;35483;50.828;3.228;2022-10-26T01:32:09;6.78;;;1.98;;
49578;SDS011;35483;50.828;3.228;2022-10-26T01:34:47;6.50;;;2.58;;
49578;SDS011;35483;50.828;3.228;2022-10-26T01:38:05;3.95;;;2.25;;
49578;SDS011;35483;50.828;3.228;2022-10-26T01:43:42;3.50;;;1.65;;
49578;SDS011;35483;50.828;3.228;2022-10-26T01:46:13;5.35;;;2.22;;
49578;SDS011;35483;50.828;3.228;2022-10-26T01:48:41;3.92;;;2.45;;
49578;SDS011;35483;50.828;3.228;2022-10-26T01:51:10;4.80;;;1.80;;
49578;SDS011;35483;50.828;3.228;2022-10-26T01:53:41;4.88;;;1.77;;
49578;SDS011;35483;50.828;3.228;2022-10-26T01:56:11;4.63;;;2.00;;
49578;SDS011;35483;50.828;3.228;2022-10-26T01:58:49;4.32;;;2.08;;
49578;SDS011;35483;50.828;3.228;2022-10-26T02:12:09;3.40;;;1.80;;
49578;SDS011;35483;50.828;3.228;2022-10-26T02:14:49;3.70;;;2.15;;
49578;SDS011;35483;50.828;3.228;2022-10-26T02:19:49;6.13;;;2.05;;
49578;SDS011;35483;50.828;3.228;2022-10-26T02:22:33;5.07;;;2.08;;
49578;SDS011;35483;50.828;3.228;2022-10-26T02:25:06;4.90;;;1.95;;
49578;SDS011;35483;50.828;3.228;2022-10-26T02:27:39;5.80;;;1.83;;
49578;SDS011;35483;50.828;3.228;2022-10-26T02:30:08;2.72;;;1.73;;
49578;SDS011;35483;50.828;3.228;2022-10-26T02:32:36;4.97;;;2.10;;
49578;SDS011;35483;50.828;3.228;2022-10-26T02:35:06;3.80;;;2.00;;
49578;SDS011;35483;50.828;3.228;2022-10-26T02:37:33;2.63;;;1.83;;
49578;SDS011;35483;50.828;3.228;2022-10-26T02:40:02;4.10;;;1.73;;
49578;SDS011;35483;50.828;3.228;2022-10-26T02:42:30;3.03;;;1.60;;
49578;SDS011;35483;50.828;3.228;2022-10-26T02:44:58;3.80;;;2.10;;
49578;SDS011;35483;50.828;3.228;2022-10-26T02:47:31;2.03;;;1.60;;
49578;SDS011;35483;50.828;3.228;2022-10-26T02:49:57;2.83;;;1.65;;
49578;SDS011;35483;50.828;3.228;2022-10-26T02:52:29;3.22;;;1.75;;
49578;SDS011;35483;50.828;3.228;2022-10-26T02:55:14;2.65;;;1.70;;
49578;SDS011;35483;50.828;3.228;2022-10-26T02:57:46;4.43;;;1.90;;
49578;SDS011;35483;50.828;3.228;2022-10-26T03:00:16;2.78;;;1.55;;
49578;SDS011;35483;50.828;3.228;2022-10-26T03:02:44;4.68;;;1.55;;
49578;SDS011;35483;50.828;3.228;2022-10-26T03:05:24;6.88;;;1.90;;
49578;SDS011;35483;50.828;3.228;2022-10-26T03:07:51;2.53;;;1.75;;
49578;SDS011;35483;50.828;3.228;2022-10-26T03:10:17;3.45;;;1.70;;
49578;SDS011;35483;50.828;3.228;2022-10-26T03:12:43;2.38;;;1.63;;
49578;SDS011;35483;50.828;3.228;2022-10-26T03:15:09;1.67;;;1.35;;
49578;SDS011;35483;50.828;3.228;2022-10-26T03:17:35;8.75;;;2.08;;
49578;SDS011;35483;50.828;3.228;2022-10-26T03:20:01;3.03;;;1.65;;
49578;SDS011;35483;50.828;3.228;2022-10-26T03:22:28;5.05;;;1.77;;
49578;SDS011;35483;50.828;3.228;2022-10-26T03:24:54;2.30;;;1.75;;
49578;SDS011;35483;50.828;3.228;2022-10-26T03:27:19;6.00;;;2.30;;
49578;SDS011;35483;50.828;3.228;2022-10-26T03:29:45;2.83;;;1.75;;
49578;SDS011;35483;50.828;3.228;2022-10-26T03:32:11;5.47;;;1.60;;
49578;SDS011;35483;50.828;3.228;2022-10-26T03:34:37;3.10;;;1.77;;
49578;SDS011;35483;50.828;3.228;2022-10-26T03:37:02;2.42;;;1.75;;
49578;SDS011;35483;50.828;3.228;2022-10-26T03:39:28;4.05;;;1.73;;
49578;SDS011;35483;50.828;3.228;2022-10-26T03:41:54;3.67;;;2.00;;
49578;SDS011;35483;50.828;3.228;2022-10-26T03:44:20;3.75;;;1.90;;
49578;SDS011;35483;50.828;3.228;2022-10-26T03:46:46;2.20;;;1.90;;
49578;SDS011;35483;50.828;3.228;2022-10-26T03:49:11;3.60;;;2.15;;
49578;SDS011;35483;50.828;3.228;2022-10-26T03:51:37;2.40;;;1.75;;
49578;SDS011;35483;50.828;3.228;2022-10-26T03:54:03;4.78;;;2.15;;
49578;SDS011;35483;50.828;3.228;2022-10-26T03:56:29;3.30;;;1.80;;
49578;SDS011;35483;50.828;3.228;2022-10-26T03:58:55;4.00;;;1.67;;
49578;SDS011;35483;50.828;3.228;2022-10-26T04:01:20;1.63;;;1.40;;
49578;SDS011;35483;50.828;3.228;2022-10-26T04:03:46;4.10;;;2.00;;
49578;SDS011;35483;50.828;3.228;2022-10-26T04:06:12;4.03;;;1.88;;
49578;SDS011;35483;50.828;3.228;2022-10-26T04:08:38;3.17;;;1.88;;
49578;SDS011;35483;50.828;3.228;2022-10-26T04:11:04;2.35;;;1.77;;
49578;SDS011;35483;50.828;3.228;2022-10-26T04:13:29;3.88;;;1.77;;
49578;SDS011;35483;50.828;3.228;2022-10-26T04:15:55;2.33;;;2.05;;
49578;SDS011;35483;50.828;3.228;2022-10-26T04:18:21;2.17;;;1.80;;
49578;SDS011;35483;50.828;3.228;2022-10-26T04:20:47;2.10;;;1.90;;
49578;SDS011;35483;50.828;3.228;2022-10-26T04:23:14;2.70;;;1.70;;
49578;SDS011;35483;50.828;3.228;2022-10-26T04:25:41;4.68;;;1.88;;
49578;SDS011;35483;50.828;3.228;2022-10-26T04:28:08;1.83;;;1.52;;
49578;SDS011;35483;50.828;3.228;2022-10-26T04:30:35;4.45;;;1.65;;
49578;SDS011;35483;50.828;3.228;2022-10-26T04:33:02;2.33;;;1.70;;
49578;SDS011;35483;50.828;3.228;2022-10-26T04:35:28;4.57;;;1.90;;
49578;SDS011;35483;50.828;3.228;2022-10-26T04:37:58;3.13;;;1.77;;
49578;SDS011;35483;50.828;3.228;2022-10-26T04:40:25;3.72;;;1.98;;
49578;SDS011;35483;50.828;3.228;2022-10-26T04:42:52;7.07;;;2.20;;
49578;SDS011;35483;50.828;3.228;2022-10-26T04:45:18;4.55;;;1.95;;
49578;SDS011;35483;50.828;3.228;2022-10-26T04:47:44;4.65;;;1.80;;
49578;SDS011;35483;50.828;3.228;2022-10-26T04:50:10;3.03;;;1.80;;
49578;SDS011;35483;50.828;3.228;2022-10-26T04:52:37;2.60;;;1.60;;
49578;SDS011;35483;50.828;3.228;2022-10-26T04:55:03;5.35;;;2.00;;
49578;SDS011;35483;50.828;3.228;2022-10-26T04:57:31;2.65;;;1.48;;
49578;SDS011;35483;50.828;3.228;2022-10-26T04:59:58;2.92;;;2.20;;
49578;SDS011;35483;50.828;3.228;2022-10-26T05:02:24;7.97;;;2.05;;
49578;SDS011;35483;50.828;3.228;2022-10-26T05:04:51;2.40;;;1.90;;
49578;SDS011;35483;50.828;3.228;2022-10-26T05:07:16;3.67;;;2.20;;
49578;SDS011;35483;50.828;3.228;2022-10-26T05:09:42;3.70;;;1.77;;
49578;SDS011;35483;50.828;3.228;2022-10-26T05:12:08;2.85;;;1.90;;
49578;SDS011;35483;50.828;3.228;2022-10-26T05:14:34;3.90;;;2.20;;
49578;SDS011;35483;50.828;3.228;2022-10-26T05:16:59;3.60;;;2.20;;
49578;SDS011;35483;50.828;3.228;2022-10-26T05:19:25;3.33;;;1.92;;
49578;SDS011;35483;50.828;3.228;2022-10-26T05:21:50;3.03;;;1.88;;
49578;SDS011;35483;50.828;3.228;2022-10-26T05:24:19;4.93;;;2.05;;
49578;SDS011;35483;50.828;3.228;2022-10-26T05:26:44;2.42;;;1.85;;
49578;SDS011;35483;50.828;3.228;2022-10-26T05:29:10;3.10;;;2.03;;
49578;SDS011;35483;50.828;3.228;2022-10-26T05:31:36;4.63;;;2.28;;
49578;SDS011;35483;50.828;3.228;2022-10-26T05:34:02;3.60;;;2.58;;
49578;SDS011;35483;50.828;3.228;2022-10-26T05:36:27;3.95;;;2.42;;
49578;SDS011;35483;50.828;3.228;2022-10-26T05:38:56;5.18;;;2.50;;
49578;SDS011;35483;50.828;3.228;2022-10-26T05:41:22;3.30;;;2.60;;
49578;SDS011;35483;50.828;3.228;2022-10-26T05:43:48;4.47;;;2.70;;
49578;SDS011;35483;50.828;3.228;2022-10-26T05:46:14;5.38;;;2.40;;
49578;SDS011;35483;50.828;3.228;2022-10-26T05:48:39;5.40;;;2.35;;
49578;SDS011;35483;50.828;3.228;2022-10-26T05:51:05;6.80;;;2.50;;
49578;SDS011;35483;50.828;3.228;2022-10-26T05:53:31;4.30;;;2.30;;
49578;SDS011;35483;50.828;3.228;2022-10-26T05:55:57;4.30;;;2.65;;
49578;SDS011;35483;50.828;3.228;2022-10-26T05:58:23;4.20;;;2.72;;
49578;SDS011;35483;50.828;3.228;2022-10-26T06:03:52;8.43;;;3.33;;
49578;SDS011;35483;50.828;3.228;2022-10-26T06:06:33;5.82;;;3.72;;
49578;SDS011;35483;50.828;3.228;2022-10-26T06:09:11;4.85;;;3.40;;
49578;SDS011;35483;50.828;3.228;2022-10-26T06:11:38;5.38;;;3.20;;
49578;SDS011;35483;50.828;3.228;2022-10-26T06:14:04;6.40;;;3.63;;
49578;SDS011;35483;50.828;3.228;2022-10-26T06:16:34;5.18;;;3.78;;
49578;SDS011;35483;50.828;3.228;2022-10-26T06:24:23;7.60;;;3.42;;
49578;SDS011;35483;50.828;3.228;2022-10-26T06:32:14;6.05;;;2.97;;
49578;SDS011;35483;50.828;3.228;2022-10-26T06:34:44;5.28;;;3.00;;
49578;SDS011;35483;50.828;3.228;2022-10-26T06:37:12;4.60;;;2.70;;
49578;SDS011;35483;50.828;3.228;2022-10-26T06:39:39;7.72;;;3.45;;
49578;SDS011;35483;50.828;3.228;2022-10-26T06:42:10;5.57;;;2.90;;
49578;SDS011;35483;50.828;3.228;2022-10-26T06:44:36;5.03;;;2.58;;
49578;SDS011;35483;50.828;3.228;2022-10-26T06:49:37;4.88;;;2.55;;
49578;SDS011;35483;50.828;3.228;2022-10-26T06:57:21;5.25;;;3.17;;
49578;SDS011;35483;50.828;3.228;2022-10-26T07:02:21;4.75;;;3.15;;
49578;SDS011;35483;50.828;3.228;2022-10-26T07:04:47;4.85;;;2.80;;
49578;SDS011;35483;50.828;3.228;2022-10-26T07:07:14;4.90;;;2.80;;
49578;SDS011;35483;50.828;3.228;2022-10-26T07:09:45;4.22;;;2.78;;
49578;SDS011;35483;50.828;3.228;2022-10-26T07:12:11;3.80;;;2.67;;
49578;SDS011;35483;50.828;3.228;2022-10-26T07:14:36;3.53;;;2.50;;
49578;SDS011;35483;50.828;3.228;2022-10-26T07:17:02;3.92;;;2.85;;
49578;SDS011;35483;50.828;3.228;2022-10-26T07:19:28;4.45;;;2.60;;
49578;SDS011;35483;50.828;3.228;2022-10-26T07:21:54;6.78;;;3.45;;
49578;SDS011;35483;50.828;3.228;2022-10-26T07:24:21;3.65;;;2.55;;
49578;SDS011;35483;50.828;3.228;2022-10-26T07:26:48;4.43;;;2.88;;
49578;SDS011;35483;50.828;3.228;2022-10-26T07:29:13;3.75;;;3.10;;
49578;SDS011;35483;50.828;3.228;2022-10-26T07:31:42;8.48;;;2.97;;
49578;SDS011;35483;50.828;3.228;2022-10-26T07:34:08;5.57;;;2.85;;
49578;SDS011;35483;50.828;3.228;2022-10-26T07:36:33;5.03;;;2.75;;
49578;SDS011;35483;50.828;3.228;2022-10-26T07:39:01;4.80;;;2.63;;
49578;SDS011;35483;50.828;3.228;2022-10-26T07:41:27;4.47;;;2.50;;
49578;SDS011;35483;50.828;3.228;2022-10-26T07:43:54;8.30;;;2.80;;
49578;SDS011;35483;50.828;3.228;2022-10-26T07:46:19;2.85;;;2.45;;
49578;SDS011;35483;50.828;3.228;2022-10-26T07:48:46;5.53;;;2.80;;
49578;SDS011;35483;50.828;3.228;2022-10-26T07:51:12;5.65;;;2.90;;
49578;SDS011;35483;50.828;3.228;2022-10-26T07:53:37;4.00;;;2.72;;
49578;SDS011;35483;50.828;3.228;2022-10-26T07:56:03;5.93;;;2.95;;
49578;SDS011;35483;50.828;3.228;2022-10-26T07:58:30;5.57;;;2.88;;
49578;SDS011;35483;50.828;3.228;2022-10-26T08:00:55;5.30;;;3.22;;
49578;SDS011;35483;50.828;3.228;2022-10-26T08:03:21;4.68;;;2.53;;
49578;SDS011;35483;50.828;3.228;2022-10-26T08:05:47;3.92;;;2.45;;
49578;SDS011;35483;50.828;3.228;2022-10-26T08:08:20;4.60;;;2.78;;
49578;SDS011;35483;50.828;3.228;2022-10-26T08:10:46;5.75;;;2.80;;
49578;SDS011;35483;50.828;3.228;2022-10-26T08:13:12;4.55;;;2.65;;
49578;SDS011;35483;50.828;3.228;2022-10-26T08:15:39;6.38;;;3.10;;
49578;SDS011;35483;50.828;3.228;2022-10-26T08:18:05;5.00;;;2.90;;
49578;SDS011;35483;50.828;3.228;2022-10-26T08:20:31;5.80;;;3.08;;
49578;SDS011;35483;50.828;3.228;2022-10-26T08:22:57;4.60;;;2.08;;
49578;SDS011;35483;50.828;3.228;2022-10-26T08:25:25;7.43;;;3.20;;
49578;SDS011;35483;50.828;3.228;2022-10-26T08:27:51;4.35;;;2.65;;
49578;SDS011;35483;50.828;3.228;2022-10-26T08:30:17;6.20;;;2.70;;
49578;SDS011;35483;50.828;3.228;2022-10-26T08:32:42;6.55;;;2.47;;
49578;SDS011;35483;50.828;3.228;2022-10-26T08:35:08;7.00;;;2.50;;
49578;SDS011;35483;50.828;3.228;2022-10-26T08:37:35;5.88;;;2.78;;
49578;SDS011;35483;50.828;3.228;2022-10-26T08:40:02;5.57;;;2.60;;
49578;SDS011;35483;50.828;3.228;2022-10-26T08:42:30;3.00;;;2.30;;
49578;SDS011;35483;50.828;3.228;2022-10-26T08:47:59;6.53;;;2.33;;
49578;SDS011;35483;50.828;3.228;2022-10-26T08:50:31;4.57;;;2.38;;
49578;SDS011;35483;50.828;3.228;2022-10-26T08:53:06;6.32;;;2.10;;
49578;SDS011;35483;50.828;3.228;2022-10-26T08:55:43;4.32;;;2.00;;
49578;SDS011;35483;50.828;3.228;2022-10-26T08:58:24;4.43;;;2.45;;
49578;SDS011;35483;50.828;3.228;2022-10-26T09:00:54;4.03;;;2.42;;
49578;SDS011;35483;50.828;3.228;2022-10-26T09:03:20;3.58;;;2.40;;
49578;SDS011;35483;50.828;3.228;2022-10-26T09:05:51;2.78;;;2.03;;
49578;SDS011;35483;50.828;3.228;2022-10-26T09:08:38;2.85;;;1.90;;
49578;SDS011;35483;50.828;3.228;2022-10-26T09:13:57;2.92;;;2.08;;
49578;SDS011;35483;50.828;3.228;2022-10-26T09:16:50;3.78;;;2.17;;
49578;SDS011;35483;50.828;3.228;2022-10-26T09:22:03;5.80;;;2.07;;
49578;SDS011;35483;50.828;3.228;2022-10-26T09:24:40;4.18;;;1.85;;
49578;SDS011;35483;50.828;3.228;2022-10-26T09:29:40;3.00;;;1.92;;
49578;SDS011;35483;50.828;3.228;2022-10-26T09:32:15;4.13;;;2.00;;
49578;SDS011;35483;50.828;3.228;2022-10-26T09:34:54;2.90;;;1.63;;
49578;SDS011;35483;50.828;3.228;2022-10-26T09:37:24;5.05;;;2.10;;
49578;SDS011;35483;50.828;3.228;2022-10-26T09:43:04;5.30;;;2.33;;
49578;SDS011;35483;50.828;3.228;2022-10-26T09:45:37;6.18;;;2.60;;
49578;SDS011;35483;50.828;3.228;2022-10-26T09:48:10;5.38;;;1.75;;
49578;SDS011;35483;50.828;3.228;2022-10-26T09:50:41;2.70;;;2.08;;
49578;SDS011;35483;50.828;3.228;2022-10-26T09:53:11;4.65;;;2.05;;
49578;SDS011;35483;50.828;3.228;2022-10-26T09:55:40;2.83;;;1.67;;
49578;SDS011;35483;50.828;3.228;2022-10-26T09:58:12;3.75;;;1.80;;
49578;SDS011;35483;50.828;3.228;2022-10-26T10:00:44;4.18;;;1.90;;
49578;SDS011;35483;50.828;3.228;2022-10-26T10:03:27;4.80;;;1.85;;
49578;SDS011;35483;50.828;3.228;2022-10-26T10:06:14;4.53;;;2.05;;
49578;SDS011;35483;50.828;3.228;2022-10-26T10:08:40;6.47;;;2.17;;
49578;SDS011;35483;50.828;3.228;2022-10-26T10:11:13;5.60;;;1.92;;
49578;SDS011;35483;50.828;3.228;2022-10-26T10:13:40;3.22;;;1.40;;
49578;SDS011;35483;50.828;3.228;2022-10-26T10:18:55;3.08;;;1.50;;
49578;SDS011;35483;50.828;3.228;2022-10-26T10:21:44;3.85;;;1.90;;
49578;SDS011;35483;50.828;3.228;2022-10-26T10:24:51;2.30;;;1.58;;
49578;SDS011;35483;50.828;3.228;2022-10-26T10:27:15;5.70;;;2.00;;
49578;SDS011;35483;50.828;3.228;2022-10-26T10:29:43;4.28;;;1.70;;
49578;SDS011;35483;50.828;3.228;2022-10-26T10:32:17;4.80;;;2.22;;
49578;SDS011;35483;50.828;3.228;2022-10-26T10:34:53;2.13;;;1.40;;
49578;SDS011;35483;50.828;3.228;2022-10-26T10:40:06;6.63;;;1.80;;
49578;SDS011;35483;50.828;3.228;2022-10-26T10:42:42;4.43;;;1.70;;
49578;SDS011;35483;50.828;3.228;2022-10-26T10:45:28;3.97;;;1.90;;
49578;SDS011;35483;50.828;3.228;2022-10-26T10:50:28;2.72;;;1.48;;
49578;SDS011;35483;50.828;3.228;2022-10-26T10:56:21;4.07;;;1.75;;
49578;SDS011;35483;50.828;3.228;2022-10-26T10:59:06;5.32;;;2.10;;
49578;SDS011;35483;50.828;3.228;2022-10-26T11:02:31;4.47;;;1.98;;
49578;SDS011;35483;50.828;3.228;2022-10-26T11:04:36;4.28;;;1.77;;
49578;SDS011;35483;50.828;3.228;2022-10-26T11:07:21;4.35;;;1.60;;
49578;SDS011;35483;50.828;3.228;2022-10-26T11:09:50;3.63;;;1.58;;
49578;SDS011;35483;50.828;3.228;2022-10-26T11:12:37;4.05;;;1.73;;
49578;SDS011;35483;50.828;3.228;2022-10-26T11:15:16;3.40;;;1.40;;
49578;SDS011;35483;50.828;3.228;2022-10-26T11:20:28;4.00;;;1.40;;
49578;SDS011;35483;50.828;3.228;2022-10-26T11:23:02;3.17;;;1.33;;
49578;SDS011;35483;50.828;3.228;2022-10-26T11:30:51;4.07;;;1.75;;
49578;SDS011;35483;50.828;3.228;2022-10-26T11:33:24;3.08;;;1.45;;
49578;SDS011;35483;50.828;3.228;2022-10-26T11:36:05;3.72;;;1.52;;
49578;SDS011;35483;50.828;3.228;2022-10-26T11:41:18;3.95;;;1.80;;
49578;SDS011;35483;50.828;3.228;2022-10-26T11:44:18;3.80;;;1.50;;
49578;SDS011;35483;50.828;3.228;2022-10-26T11:46:54;2.22;;;1.60;;
49578;SDS011;35483;50.828;3.228;2022-10-26T11:52:15;2.88;;;1.63;;
49578;SDS011;35483;50.828;3.228;2022-10-26T11:54:53;3.53;;;1.88;;
49578;SDS011;35483;50.828;3.228;2022-10-26T11:57:28;3.95;;;1.52;;
49578;SDS011;35483;50.828;3.228;2022-10-26T12:02:39;4.50;;;1.52;;
49578;SDS011;35483;50.828;3.228;2022-10-26T12:05:31;2.67;;;1.60;;
49578;SDS011;35483;50.828;3.228;2022-10-26T12:11:01;4.07;;;1.77;;
49578;SDS011;35483;50.828;3.228;2022-10-26T12:13:36;2.15;;;1.50;;
49578;SDS011;35483;50.828;3.228;2022-10-26T12:19:17;5.35;;;1.60;;
49578;SDS011;35483;50.828;3.228;2022-10-26T12:21:44;3.65;;;1.38;;
49578;SDS011;35483;50.828;3.228;2022-10-26T12:24:30;4.47;;;1.65;;
49578;SDS011;35483;50.828;3.228;2022-10-26T12:27:01;3.45;;;1.50;;
49578;SDS011;35483;50.828;3.228;2022-10-26T12:29:30;2.05;;;1.25;;
49578;SDS011;35483;50.828;3.228;2022-10-26T12:31:57;2.85;;;1.50;;
49578;SDS011;35483;50.828;3.228;2022-10-26T12:34:24;2.92;;;1.40;;
49578;SDS011;35483;50.828;3.228;2022-10-26T12:37:10;3.10;;;1.30;;
49578;SDS011;35483;50.828;3.228;2022-10-26T12:40:24;3.70;;;1.40;;
49578;SDS011;35483;50.828;3.228;2022-10-26T12:42:57;3.67;;;1.63;;
49578;SDS011;35483;50.828;3.228;2022-10-26T12:45:42;3.15;;;1.48;;
49578;SDS011;35483;50.828;3.228;2022-10-26T12:48:22;3.40;;;1.40;;
49578;SDS011;35483;50.828;3.228;2022-10-26T12:59:43;2.50;;;1.27;;
49578;SDS011;35483;50.828;3.228;2022-10-26T13:07:38;2.88;;;1.50;;
49578;SDS011;35483;50.828;3.228;2022-10-26T13:12:47;3.22;;;1.50;;
49578;SDS011;35483;50.828;3.228;2022-10-26T13:15:19;3.70;;;1.40;;
49578;SDS011;35483;50.828;3.228;2022-10-26T13:18:00;3.15;;;1.55;;
49578;SDS011;35483;50.828;3.228;2022-10-26T13:20:33;3.55;;;1.50;;
49578;SDS011;35483;50.828;3.228;2022-10-26T13:23:01;3.25;;;1.40;;
49578;SDS011;35483;50.828;3.228;2022-10-26T13:25:38;3.63;;;1.40;;
49578;SDS011;35483;50.828;3.228;2022-10-26T13:30:54;3.38;;;1.50;;
49578;SDS011;35483;50.828;3.228;2022-10-26T13:33:21;5.53;;;1.67;;
49578;SDS011;35483;50.828;3.228;2022-10-26T13:35:50;2.15;;;1.50;;
49578;SDS011;35483;50.828;3.228;2022-10-26T13:38:18;3.92;;;1.85;;
49578;SDS011;35483;50.828;3.228;2022-10-26T13:40:47;2.28;;;1.25;;
49578;SDS011;35483;50.828;3.228;2022-10-26T13:43:23;2.53;;;1.30;;
49578;SDS011;35483;50.828;3.228;2022-10-26T13:45:54;2.30;;;1.40;;
49578;SDS011;35483;50.828;3.228;2022-10-26T13:48:57;3.08;;;1.13;;
49578;SDS011;35483;50.828;3.228;2022-10-26T13:51:23;3.35;;;1.20;;
49578;SDS011;35483;50.828;3.228;2022-10-26T13:53:58;2.75;;;1.20;;
49578;SDS011;35483;50.828;3.228;2022-10-26T13:59:22;2.42;;;1.20;;
49578;SDS011;35483;50.828;3.228;2022-10-26T14:04:46;2.78;;;1.40;;
49578;SDS011;35483;50.828;3.228;2022-10-26T14:07:17;2.92;;;1.13;;
49578;SDS011;35483;50.828;3.228;2022-10-26T14:09:50;4.20;;;1.13;;
49578;SDS011;35483;50.828;3.228;2022-10-26T14:12:20;5.27;;;1.40;;
49578;SDS011;35483;50.828;3.228;2022-10-26T14:14:47;3.15;;;1.50;;
49578;SDS011;35483;50.828;3.228;2022-10-26T14:17:17;3.95;;;1.35;;
49578;SDS011;35483;50.828;3.228;2022-10-26T14:19:45;2.83;;;1.20;;
49578;SDS011;35483;50.828;3.228;2022-10-26T14:22:23;5.10;;;1.33;;
49578;SDS011;35483;50.828;3.228;2022-10-26T14:24:55;2.47;;;1.30;;
49578;SDS011;35483;50.828;3.228;2022-10-26T14:27:24;3.22;;;1.20;;
49578;SDS011;35483;50.828;3.228;2022-10-26T14:29:52;1.77;;;1.23;;
49578;SDS011;35483;50.828;3.228;2022-10-26T14:32:28;3.28;;;1.20;;
49578;SDS011;35483;50.828;3.228;2022-10-26T14:35:00;1.70;;;1.08;;
49578;SDS011;35483;50.828;3.228;2022-10-26T14:37:34;2.40;;;1.20;;
49578;SDS011;35483;50.828;3.228;2022-10-26T14:40:04;3.35;;;1.23;;
49578;SDS011;35483;50.828;3.228;2022-10-26T14:42:31;2.70;;;1.30;;
49578;SDS011;35483;50.828;3.228;2022-10-26T14:44:59;4.72;;;1.20;;
49578;SDS011;35483;50.828;3.228;2022-10-26T14:47:27;3.85;;;1.20;;
49578;SDS011;35483;50.828;3.228;2022-10-26T14:49:55;2.72;;;1.70;;
49578;SDS011;35483;50.828;3.228;2022-10-26T14:52:28;4.28;;;1.60;;
49578;SDS011;35483;50.828;3.228;2022-10-26T14:55:10;2.05;;;1.50;;
49578;SDS011;35483;50.828;3.228;2022-10-26T14:57:39;2.33;;;1.33;;
49578;SDS011;35483;50.828;3.228;2022-10-26T15:00:12;4.28;;;1.65;;
49578;SDS011;35483;50.828;3.228;2022-10-26T15:02:39;3.97;;;1.50;;
49578;SDS011;35483;50.828;3.228;2022-10-26T15:07:56;3.28;;;1.50;;
49578;SDS011;35483;50.828;3.228;2022-10-26T15:13:22;3.38;;;1.45;;
49578;SDS011;35483;50.828;3.228;2022-10-26T15:15:49;3.50;;;1.50;;
49578;SDS011;35483;50.828;3.228;2022-10-26T15:20:50;5.25;;;1.55;;
49578;SDS011;35483;50.828;3.228;2022-10-26T15:23:18;4.70;;;1.73;;
49578;SDS011;35483;50.828;3.228;2022-10-26T15:25:57;4.55;;;1.45;;
49578;SDS011;35483;50.828;3.228;2022-10-26T15:28:29;4.60;;;1.40;;
49578;SDS011;35483;50.828;3.228;2022-10-26T15:33:26;4.72;;;1.42;;
49578;SDS011;35483;50.828;3.228;2022-10-26T15:38:39;3.20;;;1.30;;
49578;SDS011;35483;50.828;3.228;2022-10-26T15:41:20;2.20;;;1.10;;
49578;SDS011;35483;50.828;3.228;2022-10-26T15:43:52;3.95;;;1.20;;
49578;SDS011;35483;50.828;3.228;2022-10-26T15:46:20;3.95;;;1.38;;
49578;SDS011;35483;50.828;3.228;2022-10-26T15:48:48;4.07;;;1.50;;
49578;SDS011;35483;50.828;3.228;2022-10-26T15:51:22;2.83;;;1.25;;
49578;SDS011;35483;50.828;3.228;2022-10-26T15:53:48;2.92;;;1.38;;
49578;SDS011;35483;50.828;3.228;2022-10-26T15:56:16;2.40;;;1.25;;
49578;SDS011;35483;50.828;3.228;2022-10-26T15:58:43;4.30;;;1.38;;
49578;SDS011;35483;50.828;3.228;2022-10-26T16:01:16;2.33;;;1.13;;
49578;SDS011;35483;50.828;3.228;2022-10-26T16:03:43;2.17;;;1.27;;
49578;SDS011;35483;50.828;3.228;2022-10-26T16:06:16;3.20;;;1.20;;
49578;SDS011;35483;50.828;3.228;2022-10-26T16:08:51;2.47;;;1.20;;
49578;SDS011;35483;50.828;3.228;2022-10-26T16:11:19;4.10;;;1.63;;
49578;SDS011;35483;50.828;3.228;2022-10-26T16:13:45;2.90;;;1.25;;
49578;SDS011;35483;50.828;3.228;2022-10-26T16:16:12;4.13;;;1.48;;
49578;SDS011;35483;50.828;3.228;2022-10-26T16:18:38;4.32;;;1.55;;
49578;SDS011;35483;50.828;3.228;2022-10-26T16:21:04;4.95;;;1.50;;
49578;SDS011;35483;50.828;3.228;2022-10-26T16:23:30;4.00;;;1.67;;
49578;SDS011;35483;50.828;3.228;2022-10-26T16:25:56;5.45;;;2.35;;
49578;SDS011;35483;50.828;3.228;2022-10-26T16:28:22;5.72;;;1.83;;
49578;SDS011;35483;50.828;3.228;2022-10-26T16:30:48;4.35;;;1.70;;
49578;SDS011;35483;50.828;3.228;2022-10-26T16:33:13;4.80;;;2.03;;
49578;SDS011;35483;50.828;3.228;2022-10-26T16:35:39;4.20;;;2.25;;
49578;SDS011;35483;50.828;3.228;2022-10-26T16:38:05;5.85;;;2.67;;
49578;SDS011;35483;50.828;3.228;2022-10-26T16:40:31;4.68;;;2.65;;
49578;SDS011;35483;50.828;3.228;2022-10-26T16:42:56;4.57;;;2.15;;
49578;SDS011;35483;50.828;3.228;2022-10-26T16:45:22;4.93;;;3.00;;
49578;SDS011;35483;50.828;3.228;2022-10-26T16:47:47;8.77;;;2.65;;
49578;SDS011;35483;50.828;3.228;2022-10-26T16:50:13;5.18;;;2.00;;
49578;SDS011;35483;50.828;3.228;2022-10-26T16:52:39;5.75;;;2.28;;
49578;SDS011;35483;50.828;3.228;2022-10-26T16:55:05;4.95;;;2.08;;
49578;SDS011;35483;50.828;3.228;2022-10-26T16:57:33;3.22;;;1.90;;
49578;SDS011;35483;50.828;3.228;2022-10-26T17:00:00;4.05;;;1.83;;
49578;SDS011;35483;50.828;3.228;2022-10-26T17:02:26;6.20;;;2.65;;
49578;SDS011;35483;50.828;3.228;2022-10-26T17:04:51;3.42;;;2.47;;
49578;SDS011;35483;50.828;3.228;2022-10-26T17:07:17;6.00;;;2.70;;
49578;SDS011;35483;50.828;3.228;2022-10-26T17:09:43;4.80;;;2.67;;
49578;SDS011;35483;50.828;3.228;2022-10-26T17:12:08;3.90;;;2.03;;
49578;SDS011;35483;50.828;3.228;2022-10-26T17:14:35;3.05;;;1.85;;
49578;SDS011;35483;50.828;3.228;2022-10-26T17:17:02;5.57;;;2.05;;
49578;SDS011;35483;50.828;3.228;2022-10-26T17:19:28;5.05;;;2.00;;
49578;SDS011;35483;50.828;3.228;2022-10-26T17:21:53;5.30;;;2.50;;